createdAt,value
2022-11-14T00:02:42.984Z,94421.44
2022-11-14T00:05:32.218Z,94415.47
2022-11-14T00:08:23.769Z,94423.91
2022-11-14T00:11:09.949Z,94422.47
2022-11-14T00:13:55.884Z,94426.72
2022-11-14T00:16:42.027Z,94433.16
2022-11-14T00:19:27.935Z,94423.72
2022-11-14T00:22:13.810Z,94422.25
2022-11-14T00:24:59.935Z,94444.56
2022-11-14T00:27:46.070Z,94430.06
2022-11-14T00:30:31.981Z,94439.69
2022-11-14T00:33:21.232Z,94444.56
2022-11-14T00:36:10.124Z,94432.03
2022-11-14T00:38:56.583Z,94441.94
2022-11-14T00:41:42.544Z,94438.47
2022-11-14T00:44:28.383Z,94457.13
2022-11-14T00:47:14.410Z,94442.72
2022-11-14T00:50:00.372Z,94448.88
2022-11-14T00:52:46.153Z,94456.91
2022-11-14T00:55:32.316Z,94444.34
2022-11-14T00:58:18.039Z,94458.38
2022-11-14T01:01:04.425Z,94446.97
2022-11-14T01:03:51.606Z,94458.09
2022-11-14T01:06:37.341Z,94453.41
2022-11-14T01:09:23.373Z,94463.63
2022-11-14T01:12:09.328Z,94460.59
2022-11-14T01:14:55.432Z,94452.94
2022-11-14T01:17:41.377Z,94456.34
2022-11-14T01:20:27.096Z,94453.22
2022-11-14T01:23:15.440Z,94457.47
2022-11-14T01:26:12.968Z,94474.69
2022-11-14T01:28:59.032Z,94458.09
2022-11-14T01:31:45.869Z,94469.81
2022-11-14T01:34:31.867Z,94457.63
2022-11-14T01:37:17.548Z,94461.84
2022-11-14T01:40:03.676Z,94466.84
2022-11-14T01:43:11.368Z,94466.50
2022-11-14T01:46:07.097Z,94470.97
2022-11-14T01:49:10.571Z,94478.28
2022-11-14T01:52:11.043Z,94467.88
2022-11-14T01:55:00.719Z,94472.94
2022-11-14T01:57:48.640Z,94482.13
2022-11-14T02:00:34.721Z,94481.84
2022-11-14T02:03:21.432Z,94473.41
2022-11-14T02:06:09.711Z,94497.03
2022-11-14T02:08:57.077Z,94490.25
2022-11-14T02:11:45.406Z,94503.75
2022-11-14T02:14:33.483Z,94488.88
2022-11-14T02:17:29.659Z,94489.59
2022-11-14T02:20:25.076Z,94492.31
2022-11-14T02:23:12.098Z,94486.59
2022-11-14T02:25:59.007Z,94492.34
2022-11-14T02:28:45.324Z,94503.75
2022-11-14T02:31:31.563Z,94501.50
2022-11-14T02:34:20.150Z,94507.00
2022-11-14T02:37:06.576Z,94515.97
2022-11-14T02:39:52.675Z,94503.34
2022-11-14T02:42:40.227Z,94519.75
2022-11-14T02:45:26.788Z,94518.59
2022-11-14T02:48:12.911Z,94517.41
2022-11-14T02:50:58.670Z,94520.91
2022-11-14T02:53:44.658Z,94528.81
2022-11-14T02:56:30.339Z,94523.47
2022-11-14T02:59:17.816Z,94529.59
2022-11-14T03:02:03.681Z,94528.88
2022-11-14T03:04:49.632Z,94533.31
2022-11-14T03:07:35.772Z,94551.03
2022-11-14T03:10:23.052Z,94557.13
2022-11-14T03:13:08.775Z,94545.78
2022-11-14T03:15:54.811Z,94561.41
2022-11-14T03:18:41.153Z,94568.63
2022-11-14T03:21:27.343Z,94565.97
2022-11-14T03:24:13.424Z,94551.06
2022-11-14T03:26:59.170Z,94564.94
2022-11-14T03:29:44.966Z,94569.53
2022-11-14T03:32:31.521Z,94582.88
2022-11-14T03:35:17.490Z,94588.16
2022-11-14T03:38:03.523Z,94577.56
2022-11-14T03:40:50.774Z,94575.78
2022-11-14T03:43:36.821Z,94595.56
2022-11-14T03:46:23.069Z,94595.16
2022-11-14T03:49:08.767Z,94599.81
2022-11-14T03:51:54.628Z,94604.00
2022-11-14T03:54:40.641Z,94599.47
2022-11-14T03:57:26.574Z,94611.00
2022-11-14T04:00:12.965Z,94610.16
2022-11-14T04:02:59.093Z,94621.53
2022-11-14T04:05:46.025Z,94611.59
2022-11-14T04:08:32.741Z,94621.13
2022-11-14T04:11:20.062Z,94613.84
2022-11-14T04:14:06.051Z,94620.28
2022-11-14T04:16:52.033Z,94622.25
2022-11-14T04:19:37.921Z,94626.44
2022-11-14T04:22:24.064Z,94623.00
2022-11-14T04:25:10.545Z,94626.31
2022-11-14T04:27:56.391Z,94625.16
2022-11-14T04:30:43.062Z,94641.16
2022-11-14T04:33:29.022Z,94632.41
2022-11-14T04:36:14.933Z,94636.63
2022-11-14T04:39:01.477Z,94634.31
2022-11-14T04:41:47.583Z,94635.03
2022-11-14T04:44:33.477Z,94626.34
2022-11-14T04:47:19.263Z,94642.00
2022-11-14T04:50:05.889Z,94643.50
2022-11-14T04:52:53.954Z,94643.09
2022-11-14T04:55:39.979Z,94644.97
2022-11-14T04:58:26.246Z,94644.53
2022-11-14T05:01:14.172Z,94666.63
2022-11-14T05:04:00.200Z,94657.91
2022-11-14T05:06:46.230Z,94656.88
2022-11-14T05:09:32.370Z,94673.25
2022-11-14T05:12:18.478Z,94667.13
2022-11-14T05:15:04.770Z,94673.25
2022-11-14T05:17:50.785Z,94669.44
2022-11-14T05:20:37.123Z,94657.91
2022-11-14T05:23:24.335Z,94678.78
2022-11-14T05:26:12.605Z,94679.94
2022-11-14T05:28:58.761Z,94677.69
2022-11-14T05:31:44.510Z,94678.09
2022-11-14T05:34:30.363Z,94674.13
2022-11-14T05:37:16.447Z,94687.09
2022-11-14T05:40:03.341Z,94690.06
2022-11-14T05:42:49.558Z,94693.47
2022-11-14T05:45:35.673Z,94696.81
2022-11-14T05:48:21.718Z,94704.78
2022-11-14T05:51:10.995Z,94699.34
2022-11-14T05:53:56.698Z,94708.50
2022-11-14T05:56:42.571Z,94704.94
2022-11-14T05:59:28.928Z,94710.56
2022-11-14T06:02:14.693Z,94708.53
2022-11-14T06:05:01.222Z,94707.06
2022-11-14T06:07:47.460Z,94708.91
2022-11-14T06:10:35.645Z,94693.72
2022-11-14T06:13:21.761Z,94729.78
2022-11-14T06:16:11.488Z,94726.28
2022-11-14T06:18:57.594Z,94730.22
2022-11-14T06:21:43.384Z,94725.28
2022-11-14T06:24:29.456Z,94727.41
2022-11-14T06:27:15.605Z,94723.69
2022-11-14T06:30:01.984Z,94725.91
2022-11-14T06:32:48.955Z,94732.75
2022-11-14T06:35:35.862Z,94732.75
2022-11-14T06:38:21.616Z,94739.53
2022-11-14T06:41:12.671Z,94743.19
2022-11-14T06:43:58.637Z,94738.56
2022-11-14T06:46:44.734Z,94743.13
2022-11-14T06:49:30.535Z,94742.72
2022-11-14T06:52:16.615Z,94745.31
2022-11-14T06:55:02.786Z,94730.13
2022-11-14T06:57:56.190Z,94738.72
2022-11-14T07:00:42.084Z,94741.09
2022-11-14T07:03:28.118Z,94741.81
2022-11-14T07:06:19.852Z,94747.84
2022-11-14T07:09:05.781Z,94737.31
2022-11-14T07:11:51.581Z,94752.13
2022-11-14T07:14:37.357Z,94756.72
2022-11-14T07:17:27.141Z,94758.06
2022-11-14T07:20:18.753Z,94771.00
2022-11-14T07:23:04.625Z,94756.44
2022-11-14T07:25:50.752Z,94761.53
2022-11-14T07:28:38.363Z,94774.16
2022-11-14T07:31:24.356Z,94778.34
2022-11-14T07:34:11.450Z,94782.50
2022-11-14T07:36:57.214Z,94767.31
2022-11-14T07:39:43.110Z,94779.50
2022-11-14T07:42:31.352Z,94782.59
2022-11-14T07:45:17.173Z,94784.88
2022-11-14T07:48:03.409Z,94773.66
2022-11-14T07:50:49.439Z,94794.13
2022-11-14T07:53:35.900Z,94794.53
2022-11-14T07:56:22.546Z,94797.59
2022-11-14T07:59:08.637Z,94802.94
2022-11-14T08:01:54.360Z,94801.78
2022-11-14T08:04:43.616Z,94797.63
2022-11-14T08:07:30.968Z,94809.16
2022-11-14T08:10:18.075Z,94817.09
2022-11-14T08:16:14.095Z,94818.41
2022-11-14T08:19:01.358Z,94817.25
2022-11-14T08:21:47.309Z,94828.63
2022-11-14T08:24:33.260Z,94825.22
2022-11-14T08:27:19.319Z,94814.56
2022-11-14T08:30:05.710Z,94835.63
2022-11-14T08:32:54.486Z,94836.41
2022-11-14T08:35:40.618Z,94846.31
2022-11-14T08:38:26.810Z,94839.50
2022-11-14T08:41:13.059Z,94854.72
2022-11-14T08:43:59.354Z,94853.25
2022-11-14T08:46:46.378Z,94836.25
2022-11-14T08:49:32.862Z,94849.19
2022-11-14T08:52:19.417Z,94862.88
2022-11-14T08:55:05.739Z,94861.84
2022-11-14T08:57:54.218Z,94865.25
2022-11-14T09:00:40.413Z,94858.03
2022-11-14T09:03:26.831Z,94863.09
2022-11-14T09:06:12.865Z,94875.69
2022-11-14T09:08:59.708Z,94873.47
2022-11-14T09:11:45.927Z,94865.81
2022-11-14T09:14:31.978Z,94879.88
2022-11-14T09:17:18.083Z,94873.03
2022-11-14T09:20:04.272Z,94873.38
2022-11-14T09:22:52.522Z,94887.09
2022-11-14T09:25:38.813Z,94886.41
2022-11-14T09:28:25.409Z,94884.47
2022-11-14T09:31:12.712Z,94889.41
2022-11-14T09:33:58.778Z,94903.56
2022-11-14T09:36:44.891Z,94894.84
2022-11-14T09:39:30.646Z,94902.81
2022-11-14T09:42:34.790Z,94908.13
2022-11-14T09:45:20.730Z,94905.88
2022-11-14T09:48:13.981Z,94917.31
2022-11-14T09:51:17.823Z,94904.38
2022-11-14T09:54:25.677Z,94900.56
2022-11-14T09:57:17.912Z,94923.06
2022-11-14T10:00:19.876Z,94904.44
2022-11-14T10:03:40.991Z,94916.66
2022-11-14T10:06:45.192Z,94920.13
2022-11-14T10:10:13.058Z,94914.72
2022-11-14T10:13:03.706Z,94931.19
2022-11-14T10:15:56.699Z,94919.72
2022-11-14T10:19:10.804Z,94923.94
2022-11-14T10:22:33.951Z,94941.06
2022-11-14T10:25:46.032Z,94924.31
2022-11-14T10:28:57.008Z,94944.50
2022-11-14T10:31:42.953Z,94937.66
2022-11-14T10:34:36.744Z,94942.59
2022-11-14T10:37:31.438Z,94946.41
2022-11-14T10:40:34.707Z,94950.97
2022-11-14T10:43:44.118Z,94955.19
2022-11-14T10:46:42.083Z,94955.56
2022-11-14T10:49:36.425Z,94962.44
2022-11-14T10:52:37.982Z,94967.75
2022-11-14T10:55:49.801Z,94955.97
2022-11-14T10:58:31.110Z,94964.72
2022-11-14T11:01:39.899Z,94963.19
2022-11-14T11:04:35.161Z,94979.19
2022-11-14T11:07:45.126Z,94974.25
2022-11-14T11:10:51.616Z,94977.69
2022-11-14T11:13:48.988Z,95000.88
2022-11-14T11:16:35.174Z,94985.28
2022-11-14T11:19:28.082Z,94986.81
2022-11-14T11:22:36.048Z,94986.44
2022-11-14T11:25:30.211Z,94991.75
2022-11-14T11:28:24.980Z,94994.38
2022-11-14T11:31:12.980Z,95005.75
2022-11-14T11:34:03.944Z,95003.50
2022-11-14T11:37:12.627Z,95016.41
2022-11-14T11:40:05.770Z,95022.94
2022-11-14T11:43:38.316Z,95024.44
2022-11-14T11:46:34.786Z,95021.75
2022-11-14T11:49:35.726Z,95034.72
2022-11-14T11:52:44.287Z,95017.16
2022-11-14T11:55:34.601Z,95033.91
2022-11-14T11:58:32.118Z,95031.63
2022-11-14T12:01:18.717Z,95036.97
2022-11-14T12:04:04.801Z,95038.06
2022-11-14T12:06:58.062Z,95038.78
2022-11-14T12:13:18.584Z,95056.69
2022-11-14T12:16:40.334Z,95052.91
2022-11-14T12:19:43.848Z,95061.22
2022-11-14T12:22:55.738Z,95061.22
2022-11-14T12:25:59.691Z,95069.94
2022-11-14T12:29:11.574Z,95076.41
2022-11-14T12:32:05.054Z,95073.38
2022-11-14T12:34:51.135Z,95084.00
2022-11-14T12:37:44.402Z,95073.41
2022-11-14T12:40:36.235Z,95084.03
2022-11-14T12:43:43.540Z,95090.13
2022-11-14T12:47:09.988Z,95092.44
2022-11-14T12:49:56.821Z,95092.78
2022-11-14T12:52:54.421Z,95077.97
2022-11-14T12:55:46.471Z,95092.78
2022-11-14T12:58:32.232Z,95090.09
2022-11-14T13:01:38.221Z,95096.56
2022-11-14T13:04:57.832Z,95117.06
2022-11-14T13:07:52.536Z,95100.25
2022-11-14T13:10:41.375Z,95104.06
2022-11-14T13:13:46.434Z,95124.91
2022-11-14T13:16:51.404Z,95110.06
2022-11-14T13:20:05.023Z,95115.34
2022-11-14T13:22:51.379Z,95114.56
2022-11-14T13:25:37.192Z,95124.75
2022-11-14T13:28:38.720Z,95123.75
2022-11-14T13:31:42.067Z,95120.25
2022-11-14T13:34:33.998Z,95136.97
2022-11-14T13:37:34.736Z,95132.38
2022-11-14T13:40:45.143Z,95138.78
2022-11-14T13:43:56.833Z,95143.34
2022-11-14T13:46:58.499Z,95143.78
2022-11-14T13:50:24.951Z,95149.88
2022-11-14T13:53:19.482Z,95156.69
2022-11-14T13:56:05.368Z,95160.41
2022-11-14T13:58:55.543Z,95154.34
2022-11-14T14:02:02.708Z,95158.19
2022-11-14T14:05:07.307Z,95174.47
2022-11-14T14:08:14.933Z,95169.94
2022-11-14T14:12:03.330Z,95165.03
2022-11-14T14:15:01.693Z,95167.97
2022-11-14T14:18:11.193Z,95180.19
2022-11-14T14:21:27.440Z,95184.75
2022-11-14T14:24:25.033Z,95189.22
2022-11-14T14:27:39.843Z,95183.97
2022-11-14T14:30:26.175Z,95185.44
2022-11-14T14:33:16.341Z,95196.84
2022-11-14T14:36:02.165Z,95199.88
2022-11-14T14:38:48.318Z,95202.53
2022-11-14T14:41:35.725Z,95199.91
2022-11-14T14:44:32.340Z,95198.38
2022-11-14T14:47:40.649Z,95200.66
2022-11-14T14:50:48.927Z,95209.78
2022-11-14T14:53:36.964Z,95214.22
2022-11-14T14:56:27.566Z,95214.59
2022-11-14T14:59:23.827Z,95192.72
2022-11-14T15:02:17.005Z,95228.88
2022-11-14T15:05:04.068Z,95228.78
2022-11-14T15:07:52.056Z,95229.88
2022-11-14T15:10:39.128Z,95233.56
2022-11-14T15:13:27.082Z,95233.56
2022-11-14T15:16:13.487Z,95245.94
2022-11-14T15:19:00.190Z,95250.09
2022-11-14T15:21:57.321Z,95244.38
2022-11-14T15:24:43.254Z,95243.13
2022-11-14T15:27:33.031Z,95253.69
2022-11-14T15:30:36.830Z,95252.94
2022-11-14T15:33:35.205Z,95266.25
2022-11-14T15:36:20.991Z,95266.88
2022-11-14T15:39:27.373Z,95275.19
2022-11-14T15:42:26.892Z,95275.44
2022-11-14T15:45:28.430Z,95273.88
2022-11-14T15:48:18.659Z,95277.25
2022-11-14T15:51:04.836Z,95273.03
2022-11-14T15:53:52.322Z,95276.38
2022-11-14T15:56:42.149Z,95288.16
2022-11-14T15:59:31.020Z,95294.19
2022-11-14T16:02:31.577Z,95288.94
2022-11-14T16:05:19.974Z,95286.22
2022-11-14T16:08:06.062Z,95295.75
2022-11-14T16:10:51.949Z,95299.19
2022-11-14T16:13:37.585Z,95300.38
2022-11-14T16:16:23.360Z,95309.56
2022-11-14T16:19:16.388Z,95306.50
2022-11-14T16:22:03.250Z,95311.56
2022-11-14T16:24:49.623Z,95316.69
2022-11-14T16:27:35.275Z,95314.78
2022-11-14T16:30:23.426Z,95308.38
2022-11-14T16:33:09.779Z,95321.63
2022-11-14T16:35:55.597Z,95327.38
2022-11-14T16:38:41.748Z,95325.53
2022-11-14T16:41:28.004Z,95333.78
2022-11-14T16:44:16.993Z,95333.44
2022-11-14T16:47:03.393Z,95329.09
2022-11-14T16:49:49.552Z,95339.38
2022-11-14T16:52:35.625Z,95340.88
2022-11-14T16:55:21.768Z,95340.19
2022-11-14T16:58:07.565Z,95347.78
2022-11-14T17:01:04.438Z,95343.94
2022-11-14T17:03:52.614Z,95343.06
2022-11-14T17:06:38.446Z,95356.47
2022-11-14T17:09:24.595Z,95351.44
2022-11-14T17:12:10.727Z,95356.03
2022-11-14T17:14:56.939Z,95354.91
2022-11-14T17:17:50.384Z,95357.97
2022-11-14T17:20:37.352Z,95360.06
2022-11-14T17:23:23.056Z,95360.97
2022-11-14T17:26:11.884Z,95358.69
2022-11-14T17:28:58.051Z,95369.19
2022-11-14T17:31:47.007Z,95364.59
2022-11-14T17:34:34.168Z,95363.13
2022-11-14T17:37:20.258Z,95374.59
2022-11-14T17:40:11.487Z,95375.63
2022-11-14T17:43:00.899Z,95370.94
2022-11-14T17:45:55.134Z,95371.38
2022-11-14T17:48:41.120Z,95374.94
2022-11-14T17:51:27.535Z,95375.63
2022-11-14T17:54:13.635Z,95367.91
2022-11-14T17:57:00.140Z,95377.66
2022-11-14T17:59:47.225Z,95375.03
2022-11-14T18:02:33.740Z,95389.06
2022-11-14T18:05:19.521Z,95370.84
2022-11-14T18:08:05.826Z,95381.88
2022-11-14T18:10:52.127Z,95381.94
2022-11-14T18:13:39.028Z,95398.56
2022-11-14T18:16:28.577Z,95378.81
2022-11-14T18:19:21.109Z,95387.47
2022-11-14T18:22:07.983Z,95390.16
2022-11-14T18:24:54.452Z,95389.41
2022-11-14T18:27:40.289Z,95386.22
2022-11-14T18:30:40.825Z,95395.63
2022-11-14T18:33:28.079Z,95385.75
2022-11-14T18:36:14.372Z,95399.41
2022-11-14T18:39:00.345Z,95397.16
2022-11-14T18:41:46.640Z,95394.44
2022-11-14T18:44:32.632Z,95405.88
2022-11-14T18:47:19.817Z,95395.59
2022-11-14T18:50:06.592Z,95400.53
2022-11-14T18:52:55.979Z,95399.06
2022-11-14T18:55:42.257Z,95398.63
2022-11-14T18:58:27.938Z,95397.09
2022-11-14T19:01:13.649Z,95403.19
2022-11-14T19:04:02.437Z,95403.59
2022-11-14T19:06:48.225Z,95395.38
2022-11-14T19:09:34.409Z,95407.31
2022-11-14T19:12:23.041Z,95406.81
2022-11-14T19:15:11.385Z,95412.75
2022-11-14T19:17:57.351Z,95406.34
2022-11-14T19:20:43.481Z,95409.06
2022-11-14T19:23:30.824Z,95404.75
2022-11-14T19:26:17.308Z,95409.56
2022-11-14T19:29:14.046Z,95406.41
2022-11-14T19:31:59.834Z,95405.50
2022-11-14T19:34:45.778Z,95403.19
2022-11-14T19:37:31.644Z,95410.72
2022-11-14T19:40:18.018Z,95410.72
2022-11-14T19:43:07.608Z,95413.03
2022-11-14T19:45:53.590Z,95411.91
2022-11-14T19:48:40.977Z,95420.13
2022-11-14T19:51:28.076Z,95429.31
2022-11-14T19:54:14.010Z,95422.44
2022-11-14T19:56:59.587Z,95424.28
2022-11-14T19:59:45.426Z,95417.66
2022-11-14T20:02:32.341Z,95423.31
2022-11-14T20:05:18.702Z,95417.59
2022-11-14T20:08:05.039Z,95417.16
2022-11-14T20:11:01.989Z,95433.28
2022-11-14T20:13:48.696Z,95435.44
2022-11-14T20:16:37.112Z,95433.63
2022-11-14T20:19:23.137Z,95437.31
2022-11-14T20:22:08.837Z,95434.69
2022-11-14T20:24:54.645Z,95442.19
2022-11-14T20:27:40.823Z,95441.44
2022-11-14T20:30:39.833Z,95424.13
2022-11-14T20:33:29.216Z,95431.03
2022-11-14T20:36:19.093Z,95436.94
2022-11-14T20:39:05.257Z,95425.34
2022-11-14T20:41:51.122Z,95434.81
2022-11-14T20:44:38.810Z,95446.97
2022-11-14T20:47:24.784Z,95442.50
2022-11-14T20:50:14.837Z,95443.63
2022-11-14T20:53:06.074Z,95439.53
2022-11-14T20:55:54.720Z,95451.56
2022-11-14T20:58:52.385Z,95449.94
2022-11-14T21:01:43.466Z,95453.34
2022-11-14T21:04:30.132Z,95454.91
2022-11-14T21:07:16.131Z,95460.03
2022-11-14T21:10:20.567Z,95453.59
2022-11-14T21:13:28.321Z,95462.22
2022-11-14T21:16:18.052Z,95458.66
2022-11-14T21:19:05.574Z,95462.41
2022-11-14T21:21:51.775Z,95471.72
2022-11-14T21:24:39.817Z,95469.66
2022-11-14T21:27:25.987Z,95471.19
2022-11-14T21:30:12.173Z,95472.63
2022-11-14T21:32:58.053Z,95477.75
2022-11-14T21:35:44.120Z,95488.63
2022-11-14T21:38:30.454Z,95489.16
2022-11-14T21:41:18.513Z,95490.38
2022-11-14T21:44:04.491Z,95496.16
2022-11-14T21:46:50.159Z,95494.47
2022-11-14T21:50:05.390Z,95491.31
2022-11-14T21:52:54.031Z,95488.50
2022-11-14T21:55:40.587Z,95484.91
2022-11-14T21:58:26.473Z,95500.19
2022-11-14T22:01:44.689Z,95510.94
2022-11-14T22:04:36.977Z,95503.09
2022-11-14T22:07:23.098Z,95510.34
2022-11-14T22:10:12.347Z,95503.19
2022-11-14T22:13:01.335Z,95498.06
2022-11-14T22:15:56.257Z,95498.84
2022-11-14T22:18:44.595Z,95496.28
2022-11-14T22:21:30.775Z,95501.50
2022-11-14T22:24:16.903Z,95498.06
2022-11-14T22:27:02.727Z,95504.22
2022-11-14T22:29:48.595Z,95507.63
2022-11-14T22:32:34.848Z,95513.69
2022-11-14T22:35:20.610Z,95502.75
2022-11-14T22:38:06.688Z,95508.91
2022-11-14T22:40:52.622Z,95513.09
2022-11-14T22:43:38.389Z,95507.56
2022-11-14T22:46:24.669Z,95509.00
2022-11-14T22:49:10.276Z,95512.75
2022-11-14T22:51:56.118Z,95508.91
2022-11-14T22:54:42.511Z,95522.16
2022-11-14T22:57:28.171Z,95518.28
2022-11-14T23:00:15.565Z,95513.69
2022-11-14T23:03:01.356Z,95521.63
2022-11-14T23:05:47.172Z,95516.44
2022-11-14T23:08:34.277Z,95512.25
2022-11-14T23:11:26.031Z,95523.50
2022-11-14T23:14:14.450Z,95528.28
2022-11-14T23:17:00.137Z,95529.31
2022-11-14T23:19:46.234Z,95531.88
2022-11-14T23:22:31.876Z,95524.78
2022-11-14T23:25:18.223Z,95529.06
2022-11-14T23:28:04.442Z,95515.91
2022-11-14T23:30:50.250Z,95521.09
2022-11-14T23:33:36.656Z,95540.84
2022-11-14T23:36:23.124Z,95531.03
2022-11-14T23:39:08.802Z,95534.78
2022-11-14T23:41:54.660Z,95541.53
2022-11-14T23:44:40.615Z,95538.78
2022-11-14T23:47:26.283Z,95536.22
2022-11-14T23:50:12.045Z,95543.47
2022-11-14T23:52:57.834Z,95536.56
2022-11-14T23:55:43.661Z,95545.53
2022-11-14T23:58:30.717Z,95545.88
